createdAt,value
2023-03-31T00:10:22.511Z,1.90
2023-03-31T00:21:22.388Z,1.50
2023-03-31T00:32:22.278Z,1.60
2023-03-31T00:43:22.133Z,1.70
2023-03-31T00:54:22.023Z,1.20
2023-03-31T01:05:21.884Z,1.40
2023-03-31T01:16:21.833Z,1.40
2023-03-31T01:27:21.635Z,2.70
2023-03-31T01:38:21.534Z,1.40
2023-03-31T01:49:21.393Z,1.80
2023-03-31T02:00:21.272Z,1.50
2023-03-31T02:11:21.140Z,1.40
2023-03-31T02:22:21.016Z,1.60
2023-03-31T02:33:20.916Z,1.90
2023-03-31T02:44:20.765Z,1.50
2023-03-31T02:55:20.647Z,1.30
2023-03-31T03:06:20.518Z,2.20
2023-03-31T03:17:20.398Z,1.70
2023-03-31T03:28:20.270Z,1.60
2023-03-31T03:39:20.200Z,1.60
2023-03-31T03:50:20.029Z,1.60
2023-03-31T04:01:19.898Z,2.20
2023-03-31T04:12:19.772Z,1.50
2023-03-31T04:23:19.633Z,2.00
2023-03-31T04:34:19.528Z,2.10
2023-03-31T04:45:19.404Z,1.90
2023-03-31T04:56:19.255Z,2.00
2023-03-31T05:07:19.133Z,2.00
2023-03-31T05:18:19.017Z,1.80
2023-03-31T05:29:18.889Z,1.60
2023-03-31T05:40:18.766Z,2.30
2023-03-31T05:51:18.680Z,2.60
2023-03-31T06:02:18.613Z,3.00
2023-03-31T06:13:18.390Z,2.70
2023-03-31T06:24:18.279Z,2.50
2023-03-31T06:35:18.152Z,3.30
2023-03-31T06:46:18.087Z,2.70
2023-03-31T06:57:17.991Z,2.70
2023-03-31T07:08:17.761Z,2.90
2023-03-31T07:19:17.636Z,3.00
2023-03-31T07:30:17.563Z,3.10
2023-03-31T07:41:17.401Z,4.20
2023-03-31T07:52:17.271Z,3.30
2023-03-31T08:03:17.180Z,3.40
2023-03-31T08:14:21.938Z,3.60
2023-03-31T08:25:16.903Z,4.30
2023-03-31T08:36:16.879Z,4.10
2023-03-31T08:47:16.705Z,4.00
2023-03-31T08:58:16.514Z,3.90
2023-03-31T09:09:16.412Z,3.70
2023-03-31T09:20:16.261Z,4.00
2023-03-31T09:31:16.203Z,3.50
2023-03-31T09:42:16.049Z,3.40
2023-03-31T09:53:15.900Z,2.30
2023-03-31T10:04:15.856Z,2.20
2023-03-31T10:15:15.647Z,3.00
2023-03-31T10:26:15.518Z,1.70
2023-03-31T10:37:15.381Z,1.20
2023-03-31T10:48:15.282Z,1.30
2023-03-31T10:59:15.153Z,1.10
2023-03-31T11:10:15.005Z,2.20
2023-03-31T11:21:14.884Z,1.70
2023-03-31T11:32:14.828Z,1.20
2023-03-31T11:43:14.631Z,1.20
2023-03-31T11:54:14.535Z,0.90
2023-03-31T12:05:14.394Z,1.20
2023-03-31T12:16:14.326Z,1.20
2023-03-31T12:27:14.138Z,0.50
2023-03-31T12:38:14.012Z,0.80
2023-03-31T12:49:13.887Z,0.90
2023-03-31T13:00:13.810Z,0.70
2023-03-31T13:11:13.659Z,0.90
2023-03-31T13:22:13.521Z,0.90
2023-03-31T13:33:13.923Z,0.80
2023-03-31T13:44:13.459Z,0.60
2023-03-31T13:55:15.044Z,0.90
2023-03-31T14:06:13.037Z,1.00
2023-03-31T14:17:12.882Z,0.90
2023-03-31T14:28:12.762Z,1.00
2023-03-31T14:39:12.683Z,1.40
2023-03-31T14:50:12.524Z,1.10
2023-03-31T15:01:12.423Z,1.20
2023-03-31T15:12:12.325Z,0.90
2023-03-31T15:23:12.146Z,1.40
2023-03-31T15:34:13.057Z,1.30
2023-03-31T15:45:11.917Z,0.80
2023-03-31T15:56:11.761Z,0.80
2023-03-31T16:07:11.661Z,0.90
2023-03-31T16:18:11.557Z,0.90
2023-03-31T16:29:11.395Z,1.20
2023-03-31T16:40:11.273Z,1.20
2023-03-31T16:51:11.159Z,1.00
2023-03-31T17:02:11.213Z,1.30
2023-03-31T17:13:10.896Z,0.90
2023-03-31T17:24:10.771Z,1.10
2023-03-31T17:35:10.657Z,1.00
2023-03-31T17:46:11.835Z,1.40
2023-03-31T17:57:10.487Z,1.10
2023-03-31T18:08:10.265Z,0.60
2023-03-31T18:19:10.139Z,0.80
2023-03-31T18:30:10.016Z,0.90
2023-03-31T18:41:09.902Z,0.50
2023-03-31T18:52:09.789Z,1.30
2023-03-31T19:03:09.684Z,0.60
2023-03-31T19:14:09.526Z,1.00
2023-03-31T19:25:09.411Z,1.40
2023-03-31T19:36:09.405Z,1.40
2023-03-31T19:47:09.150Z,0.90
2023-03-31T19:58:09.027Z,0.90
2023-03-31T20:09:08.896Z,1.00
2023-03-31T20:20:08.838Z,1.00
2023-03-31T20:31:08.662Z,0.90
2023-03-31T20:42:08.557Z,0.80
2023-03-31T20:53:08.398Z,0.90
2023-03-31T21:04:08.353Z,1.00
2023-03-31T21:15:08.147Z,1.30
2023-03-31T21:26:08.032Z,1.00
2023-03-31T21:37:07.908Z,1.00
2023-03-31T21:48:07.865Z,1.10
2023-03-31T21:59:07.655Z,2.40
2023-03-31T22:10:07.536Z,1.00
2023-03-31T22:21:07.405Z,1.70
2023-03-31T22:32:07.286Z,1.10
2023-03-31T22:43:07.188Z,1.80
2023-03-31T22:54:07.031Z,1.20
2023-03-31T23:05:06.905Z,0.70
2023-03-31T23:16:06.892Z,1.10
2023-03-31T23:27:06.662Z,0.90
2023-03-31T23:38:06.595Z,1.30
2023-03-31T23:49:06.409Z,1.10
